Time;durP1;ratioP1;P1;durP2;ratioP2;P2;SDS_P1;SDS_P2;PMS_P1;PMS_P2;Temp;Humidity;BMP_temperature;BMP_pressure;BME280_temperature;BME280_humidity;BME280_pressure;Samples;Min_cycle;Max_cycle;Signal;HPM_P1;HPM_P2
2022/03/22 00:00:17;;;;;;;10.52;7.18;;;0.60;97.60;;;;;;7378756;19;20366;-68
2022/03/22 00:02:43;;;;;;;9.02;6.72;;;0.50;99.10;;;;;;7372545;19;20697;-68
2022/03/22 00:05:08;;;;;;;10.57;7.20;;;0.50;99.30;;;;;;7378257;19;20320;-68
2022/03/22 00:07:34;;;;;;;9.83;6.70;;;0.50;99.80;;;;;;7376922;19;20371;-68
2022/03/22 00:10:00;;;;;;;12.90;8.82;;;0.40;99.90;;;;;;7377557;19;20329;-68
2022/03/22 00:12:26;;;;;;;8.17;6.90;;;0.40;99.90;;;;;;7372834;19;20356;-68
2022/03/22 00:14:51;;;;;;;10.27;7.07;;;0.30;99.90;;;;;;7356880;19;20804;-68
2022/03/22 00:17:17;;;;;;;10.25;7.45;;;0.20;99.90;;;;;;7377735;19;20348;-68
2022/03/22 00:19:43;;;;;;;11.30;7.57;;;0.20;99.90;;;;;;7376881;19;20362;-67
2022/03/22 00:22:11;;;;;;;9.68;7.28;;;0.20;99.90;;;;;;7377081;19;20341;-67
2022/03/22 00:24:37;;;;;;;9.50;7.22;;;0.20;99.90;;;;;;7376292;19;20976;-68
2022/03/22 00:27:02;;;;;;;8.50;7.17;;;0.20;99.90;;;;;;7375724;19;20339;-68
2022/03/22 00:29:28;;;;;;;9.45;7.43;;;0.10;99.90;;;;;;7377892;19;20849;-68
2022/03/22 00:31:56;;;;;;;12.60;7.35;;;0.20;99.90;;;;;;7376734;19;20664;-68
2022/03/22 00:34:23;;;;;;;10.15;7.95;;;0.10;99.90;;;;;;7374329;19;20322;-68
2022/03/22 00:36:50;;;;;;;9.60;7.23;;;0.10;99.90;;;;;;7376570;19;20329;-68
2022/03/22 00:39:16;;;;;;;8.18;6.97;;;0.10;99.90;;;;;;7380093;19;20308;-68
2022/03/22 00:41:42;;;;;;;9.15;7.07;;;0.10;99.90;;;;;;7375901;19;20337;-68
2022/03/22 00:44:08;;;;;;;10.20;7.50;;;0.20;99.90;;;;;;7372403;19;20376;-68
2022/03/22 00:46:35;;;;;;;10.88;7.65;;;0.10;99.90;;;;;;7377362;19;20333;-68
2022/03/22 00:49:02;;;;;;;11.55;7.75;;;0.10;99.90;;;;;;7372974;19;20324;-68
2022/03/22 00:51:28;;;;;;;9.23;6.75;;;0.10;99.90;;;;;;7376094;19;20352;-68
2022/03/22 00:53:54;;;;;;;10.65;7.35;;;0.10;99.90;;;;;;7371237;19;20312;-68
2022/03/22 00:56:20;;;;;;;11.27;7.30;;;0.00;99.90;;;;;;7375818;19;20657;-68
2022/03/22 00:58:45;;;;;;;10.50;7.70;;;0.00;99.90;;;;;;7375760;19;20332;-68
2022/03/22 01:01:11;;;;;;;8.40;7.18;;;0.00;99.90;;;;;;7375622;19;20407;-68
2022/03/22 01:03:37;;;;;;;10.10;7.20;;;-0.10;99.90;;;;;;7367296;19;20880;-68
2022/03/22 01:06:02;;;;;;;9.73;7.28;;;-0.10;99.90;;;;;;7382394;19;20312;-68
2022/03/22 01:08:31;;;;;;;15.45;7.50;;;-0.30;99.90;;;;;;7380578;19;20608;-68
2022/03/22 01:10:57;;;;;;;11.33;8.50;;;-0.30;99.90;;;;;;7381617;19;20960;-68
2022/03/22 01:13:25;;;;;;;9.03;7.50;;;-0.30;99.90;;;;;;7378477;19;20320;-68
2022/03/22 01:15:50;;;;;;;11.13;7.65;;;-0.40;99.90;;;;;;7384266;19;20324;-68
2022/03/22 01:18:16;;;;;;;11.18;7.45;;;-0.40;99.90;;;;;;7383361;19;20313;-68
2022/03/22 01:20:44;;;;;;;9.48;7.53;;;-0.50;99.90;;;;;;7387799;19;20305;-68
2022/03/22 01:23:09;;;;;;;10.18;7.22;;;-0.50;99.90;;;;;;7377590;19;20383;-67
2022/03/22 01:25:36;;;;;;;10.63;7.55;;;-0.50;99.90;;;;;;7383625;19;20329;-68
2022/03/22 01:28:03;;;;;;;12.80;8.37;;;-0.60;99.90;;;;;;7384616;19;20308;-68
2022/03/22 01:30:29;;;;;;;11.82;7.80;;;-0.70;99.90;;;;;;7382391;19;20308;-68
2022/03/22 01:32:56;;;;;;;9.82;8.15;;;-0.80;99.90;;;;;;7379584;19;20725;-68
2022/03/22 01:35:23;;;;;;;9.60;7.73;;;-0.90;99.90;;;;;;7381919;19;20326;-68
2022/03/22 01:37:48;;;;;;;11.50;7.72;;;-0.90;99.90;;;;;;7382258;19;21515;-68
2022/03/22 01:40:15;;;;;;;10.45;7.50;;;-0.90;99.90;;;;;;7384161;19;20379;-68
2022/03/22 01:42:41;;;;;;;10.95;8.00;;;-0.90;99.90;;;;;;7377787;19;20634;-68
2022/03/22 01:45:09;;;;;;;15.00;7.73;;;-1.00;99.90;;;;;;7382243;19;20321;-68
2022/03/22 01:47:36;;;;;;;13.30;7.55;;;-1.00;99.90;;;;;;7382028;19;20360;-68
2022/03/22 01:50:02;;;;;;;11.50;8.32;;;-1.00;99.90;;;;;;7379925;19;20341;-68
2022/03/22 01:52:28;;;;;;;9.90;7.55;;;-1.00;99.90;;;;;;7378035;19;20309;-68
2022/03/22 01:54:55;;;;;;;12.47;8.17;;;-1.00;99.90;;;;;;7378118;19;20292;-68
2022/03/22 01:57:23;;;;;;;9.48;7.97;;;-1.00;99.90;;;;;;7380905;19;20313;-68
2022/03/22 01:59:49;;;;;;;9.02;7.63;;;-1.00;99.90;;;;;;7382491;19;20841;-68
2022/03/22 02:07:47;;;;;;;10.68;8.13;;;-1.10;99.90;;;;;;7377286;19;20359;-67
2022/03/22 02:10:13;;;;;;;11.18;8.07;;;-1.20;99.90;;;;;;7381233;19;20317;-68
2022/03/22 02:12:38;;;;;;;10.05;8.25;;;-1.20;99.90;;;;;;7375211;19;20347;-67
2022/03/22 02:15:05;;;;;;;11.93;7.57;;;-1.20;99.90;;;;;;7376183;19;20679;-68
2022/03/22 02:17:31;;;;;;;10.95;7.70;;;-1.30;99.90;;;;;;7379517;19;20387;-67
2022/03/22 02:19:57;;;;;;;9.70;8.10;;;-1.40;99.90;;;;;;7380983;19;20392;-67
2022/03/22 02:22:28;;;;;;;13.48;8.45;;;-1.50;99.90;;;;;;7377389;19;20340;-68
2022/03/22 02:24:54;;;;;;;11.60;8.25;;;-1.50;99.90;;;;;;7381228;19;20325;-68
2022/03/22 02:27:21;;;;;;;11.85;8.02;;;-1.40;99.90;;;;;;7380011;19;20304;-67
2022/03/22 02:29:46;;;;;;;9.95;7.50;;;-1.40;99.90;;;;;;7381137;19;20870;-67
2022/03/22 02:32:12;;;;;;;10.20;7.87;;;-1.50;99.90;;;;;;7376167;19;20329;-67
2022/03/22 02:34:39;;;;;;;10.45;7.78;;;-1.50;99.90;;;;;;7379235;19;20344;-67
2022/03/22 02:37:05;;;;;;;11.07;8.27;;;-1.60;99.90;;;;;;7362277;19;20332;-68
2022/03/22 02:39:32;;;;;;;13.27;8.55;;;-1.60;99.90;;;;;;7377696;19;20301;-67
2022/03/22 02:41:57;;;;;;;10.75;8.35;;;-1.70;99.90;;;;;;7380025;19;20348;-67
2022/03/22 02:44:24;;;;;;;9.18;7.70;;;-1.70;99.90;;;;;;7377268;19;20317;-67
2022/03/22 02:46:50;;;;;;;10.88;8.43;;;-1.70;99.90;;;;;;7382037;19;20851;-67
2022/03/22 02:49:16;;;;;;;10.57;7.55;;;-1.70;99.90;;;;;;7379371;19;20304;-67
2022/03/22 02:51:42;;;;;;;14.55;9.35;;;-1.70;99.90;;;;;;7375699;19;21555;-68
2022/03/22 02:54:08;;;;;;;11.77;8.02;;;-1.70;99.90;;;;;;7373139;19;20352;-67
2022/03/22 02:56:33;;;;;;;9.18;7.72;;;-1.70;99.90;;;;;;7378586;19;23125;-68
2022/03/22 02:59:00;;;;;;;12.50;8.63;;;-1.70;99.90;;;;;;7378780;19;20849;-68
2022/03/22 03:01:26;;;;;;;12.47;8.40;;;-1.70;99.90;;;;;;7377944;19;20349;-68
2022/03/22 03:03:52;;;;;;;9.50;7.43;;;-1.80;99.90;;;;;;7371456;19;20480;-68
2022/03/22 03:06:17;;;;;;;10.35;7.68;;;-1.80;99.90;;;;;;7378581;19;20864;-67
2022/03/22 03:08:43;;;;;;;10.15;7.90;;;-1.90;99.90;;;;;;7374501;19;20754;-68
2022/03/22 03:11:09;;;;;;;11.20;7.80;;;-1.90;99.90;;;;;;7379280;19;20332;-68
2022/03/22 03:16:19;;;;;;;12.20;7.95;;;-1.90;99.90;;;;;;7273932;19;2004915;-68
2022/03/22 03:18:45;;;;;;;12.00;8.18;;;-1.90;99.90;;;;;;7379338;19;20890;-67
2022/03/22 03:21:11;;;;;;;12.43;8.43;;;-1.90;99.90;;;;;;7380031;19;20345;-68
2022/03/22 03:23:36;;;;;;;11.82;8.05;;;-2.00;99.90;;;;;;7374883;19;20325;-67
2022/03/22 03:26:02;;;;;;;9.50;7.60;;;-2.10;99.90;;;;;;7378611;19;20336;-67
2022/03/22 03:28:28;;;;;;;10.48;7.35;;;-2.10;99.90;;;;;;7377465;19;20347;-68
2022/03/22 03:30:54;;;;;;;9.63;7.63;;;-2.20;99.90;;;;;;7370153;19;20329;-68
2022/03/22 03:33:19;;;;;;;12.63;8.93;;;-2.20;99.90;;;;;;7376025;19;20347;-68
2022/03/22 03:35:45;;;;;;;10.07;8.20;;;-2.30;99.90;;;;;;7379451;19;20336;-67
2022/03/22 03:38:11;;;;;;;11.40;7.73;;;-2.30;99.90;;;;;;7378155;19;20360;-67
2022/03/22 03:43:20;;;;;;;13.45;8.15;;;-2.30;99.90;;;;;;7370739;19;20312;-67
2022/03/22 03:48:31;;;;;;;12.77;8.63;;;-2.30;99.90;;;;;;7374734;19;20336;-67
2022/03/22 03:50:57;;;;;;;11.03;8.33;;;-2.40;99.90;;;;;;7379307;19;20308;-67
2022/03/22 03:53:23;;;;;;;10.30;7.77;;;-2.60;99.90;;;;;;7374456;19;20353;-67
2022/03/22 03:55:49;;;;;;;9.48;7.45;;;-2.60;99.90;;;;;;7377560;19;20328;-67
2022/03/22 03:58:14;;;;;;;9.53;7.50;;;-2.60;99.90;;;;;;7376685;19;20295;-67
2022/03/22 04:00:40;;;;;;;11.50;8.07;;;-2.50;99.90;;;;;;7375261;19;20690;-67
2022/03/22 04:03:06;;;;;;;11.85;7.68;;;-2.50;99.90;;;;;;7375670;19;20308;-67
2022/03/22 04:05:31;;;;;;;12.40;8.23;;;-2.50;99.90;;;;;;7376078;19;20419;-68
2022/03/22 04:07:57;;;;;;;10.40;8.15;;;-2.60;99.90;;;;;;7373895;19;20347;-67
2022/03/22 04:10:23;;;;;;;10.02;7.55;;;-2.50;99.90;;;;;;7377606;19;20924;-68
2022/03/22 04:12:49;;;;;;;11.70;8.13;;;-2.50;99.90;;;;;;7379005;19;20341;-68
2022/03/22 04:15:14;;;;;;;11.20;8.47;;;-2.50;99.90;;;;;;7381601;19;20337;-67
2022/03/22 04:17:40;;;;;;;11.35;7.63;;;-2.50;99.90;;;;;;7357679;19;20341;-68
2022/03/22 04:20:07;;;;;;;11.70;8.70;;;-2.60;99.90;;;;;;7375742;19;20365;-68
2022/03/22 04:22:33;;;;;;;8.57;7.45;;;-2.70;99.90;;;;;;7360377;19;20360;-68
2022/03/22 04:24:59;;;;;;;11.20;8.15;;;-2.70;99.90;;;;;;7375520;19;21104;-67
2022/03/22 04:32:53;;;;;;;8.95;7.38;;;-2.70;99.90;;;;;;7377340;19;21005;-67
2022/03/22 04:35:20;;;;;;;12.95;8.20;;;-2.70;99.90;;;;;;7377448;19;20384;-67
2022/03/22 04:37:49;;;;;;;12.13;8.75;;;-2.80;99.90;;;;;;7374881;19;20889;-68
2022/03/22 04:40:15;;;;;;;12.27;8.77;;;-2.90;99.90;;;;;;7384880;19;20313;-67
2022/03/22 04:42:42;;;;;;;11.05;8.85;;;-3.00;99.90;;;;;;7381875;19;20412;-68
2022/03/22 04:45:08;;;;;;;9.82;7.80;;;-3.10;99.90;;;;;;7386440;19;20316;-68
2022/03/22 04:47:35;;;;;;;11.23;8.30;;;-3.10;99.90;;;;;;7382599;19;20339;-68
2022/03/22 04:50:02;;;;;;;10.75;8.35;;;-3.10;99.90;;;;;;7385990;19;20305;-68
2022/03/22 04:57:56;;;;;;;10.27;8.18;;;-3.00;99.90;;;;;;7382124;19;21204;-67
2022/03/22 05:00:22;;;;;;;14.52;8.63;;;-3.00;99.90;;;;;;7384912;19;20380;-69
2022/03/22 05:02:47;;;;;;;10.27;7.83;;;-2.90;99.90;;;;;;7382661;19;20365;-67
2022/03/22 05:05:15;;;;;;;10.85;8.00;;;-2.90;99.90;;;;;;7385465;19;20333;-67
2022/03/22 05:07:41;;;;;;;11.20;8.32;;;-2.90;99.90;;;;;;7383484;19;20328;-68
2022/03/22 05:10:07;;;;;;;14.40;8.48;;;-3.00;99.90;;;;;;7386572;19;20321;-68
2022/03/22 05:12:32;;;;;;;11.53;8.13;;;-3.00;99.90;;;;;;7381283;19;20993;-67
2022/03/22 05:14:59;;;;;;;10.83;8.43;;;-3.00;99.90;;;;;;7380548;19;20321;-67
2022/03/22 05:17:25;;;;;;;9.35;7.75;;;-3.00;99.90;;;;;;7385161;19;20670;-68
2022/03/22 05:19:51;;;;;;;11.27;8.75;;;-3.00;99.90;;;;;;7385747;19;20347;-67
2022/03/22 05:22:17;;;;;;;10.02;8.30;;;-3.10;99.90;;;;;;7383808;19;20325;-67
2022/03/22 05:24:44;;;;;;;11.10;7.57;;;-3.20;99.90;;;;;;7383999;19;20362;-67
2022/03/22 05:27:10;;;;;;;10.20;6.53;;;-3.20;99.90;;;;;;7381457;19;20304;-67
2022/03/22 05:29:35;;;;;;;9.17;7.20;;;-3.20;99.90;;;;;;7386197;19;20369;-67
2022/03/22 05:32:01;;;;;;;12.25;7.53;;;-3.20;99.90;;;;;;7378378;19;20400;-68
2022/03/22 05:34:27;;;;;;;10.63;8.20;;;-3.20;99.90;;;;;;7381623;19;20396;-67
2022/03/22 05:36:52;;;;;;;10.37;7.13;;;-3.20;99.90;;;;;;7381881;19;20345;-67
2022/03/22 05:39:19;;;;;;;10.07;6.78;;;-3.20;99.90;;;;;;7382948;19;20502;-67
2022/03/22 05:41:44;;;;;;;12.82;8.27;;;-3.10;99.90;;;;;;7383330;19;20328;-68
2022/03/22 05:44:12;;;;;;;13.10;7.07;;;-3.10;99.90;;;;;;7383227;19;20654;-67
2022/03/22 05:46:42;;;;;;;9.20;7.75;;;-3.00;99.90;;;;;;7381429;19;20362;-67
2022/03/22 05:49:13;;;;;;;11.93;7.35;;;-3.00;99.90;;;;;;7384158;19;20316;-68
2022/03/22 05:51:39;;;;;;;12.43;7.18;;;-3.00;99.90;;;;;;7382119;19;21051;-67
2022/03/22 05:54:05;;;;;;;9.75;7.05;;;-2.90;99.90;;;;;;7381440;19;20927;-67
2022/03/22 05:56:30;;;;;;;8.77;7.13;;;-2.80;99.90;;;;;;7380448;19;20312;-68
2022/03/22 05:58:58;;;;;;;7.33;6.43;;;-2.70;99.90;;;;;;7383512;19;20336;-68
2022/03/22 06:01:24;;;;;;;10.27;7.10;;;-2.60;99.90;;;;;;7381650;19;20323;-67
2022/03/22 06:03:50;;;;;;;9.88;7.80;;;-2.50;99.90;;;;;;7380528;19;20293;-68
2022/03/22 06:06:16;;;;;;;10.90;8.10;;;-2.40;99.90;;;;;;7365261;19;20352;-67
2022/03/22 06:08:44;;;;;;;13.13;10.38;;;-2.20;99.90;;;;;;7380423;19;20345;-68
2022/03/22 06:11:10;;;;;;;9.95;7.85;;;-2.10;99.90;;;;;;7380740;19;20857;-67
2022/03/22 06:13:36;;;;;;;10.07;7.45;;;-1.90;99.90;;;;;;7378637;19;20353;-67
2022/03/22 06:16:05;;;;;;;11.93;7.80;;;-1.80;99.90;;;;;;7378619;19;20340;-68
2022/03/22 06:18:31;;;;;;;11.60;9.60;;;-1.70;99.90;;;;;;7383775;19;20337;-67
2022/03/22 06:20:57;;;;;;;11.27;8.52;;;-1.50;99.90;;;;;;7385182;19;20900;-67
2022/03/22 06:23:23;;;;;;;9.80;7.03;;;-1.40;99.90;;;;;;7378393;19;20348;-68
2022/03/22 06:25:48;;;;;;;11.37;8.47;;;-1.30;99.90;;;;;;7383085;19;20941;-68
2022/03/22 06:28:14;;;;;;;10.68;7.75;;;-1.20;99.90;;;;;;7377534;19;20447;-67
2022/03/22 06:30:40;;;;;;;7.22;6.07;;;-1.10;99.90;;;;;;7382687;19;20428;-68
2022/03/22 06:33:13;;;;;;;7.75;6.40;;;-0.90;99.90;;;;;;7382631;19;20321;-67
2022/03/22 06:35:40;;;;;;;12.57;9.38;;;-0.80;99.90;;;;;;7383150;19;20328;-68
2022/03/22 06:38:05;;;;;;;18.77;10.20;;;-0.50;99.90;;;;;;7377323;19;20320;-67
2022/03/22 06:40:34;;;;;;;12.23;9.95;;;-0.40;99.90;;;;;;7384919;19;20329;-67
2022/03/22 06:43:00;;;;;;;13.73;9.45;;;-0.30;99.90;;;;;;7379479;19;20346;-67
2022/03/22 06:45:26;;;;;;;14.45;9.27;;;-0.10;99.90;;;;;;7377881;19;20343;-67
2022/03/22 06:47:52;;;;;;;12.27;9.63;;;0.00;99.90;;;;;;7379430;19;20325;-68
2022/03/22 06:50:18;;;;;;;14.50;10.48;;;0.20;99.90;;;;;;7379462;19;20782;-68
2022/03/22 06:52:44;;;;;;;16.20;11.10;;;0.40;99.90;;;;;;7382188;19;20373;-68
2022/03/22 06:55:10;;;;;;;14.27;10.20;;;0.60;99.90;;;;;;7381479;19;20312;-68
2022/03/22 06:57:36;;;;;;;14.73;10.38;;;0.70;99.90;;;;;;7376052;19;20341;-68
2022/03/22 07:00:08;;;;;;;16.77;10.90;;;0.90;99.90;;;;;;7382458;19;20416;-68
2022/03/22 07:02:39;;;;;;;16.70;11.90;;;1.10;99.90;;;;;;7381629;19;20352;-76
2022/03/22 07:05:05;;;;;;;19.40;11.32;;;1.30;99.90;;;;;;7381579;19;20316;-68
2022/03/22 07:07:31;;;;;;;14.45;10.43;;;1.50;99.90;;;;;;7379895;19;20308;-68
2022/03/22 07:09:57;;;;;;;15.70;11.57;;;1.70;99.90;;;;;;7383917;19;20319;-67
2022/03/22 07:12:22;;;;;;;20.10;11.63;;;1.90;99.90;;;;;;7379176;19;20313;-67
2022/03/22 07:14:48;;;;;;;14.03;10.57;;;2.10;99.90;;;;;;7381066;19;20329;-68
2022/03/22 07:17:13;;;;;;;17.87;11.23;;;2.20;99.90;;;;;;7380902;19;20920;-67
2022/03/22 07:19:39;;;;;;;17.75;11.55;;;2.40;99.90;;;;;;7380687;19;20320;-68
2022/03/22 07:22:05;;;;;;;11.60;9.90;;;2.50;99.90;;;;;;7379849;19;20328;-68
2022/03/22 07:24:31;;;;;;;17.00;11.82;;;2.70;99.90;;;;;;7379896;19;20309;-67
2022/03/22 07:26:56;;;;;;;15.50;11.10;;;2.90;99.90;;;;;;7379509;19;20332;-68
2022/03/22 07:29:22;;;;;;;14.18;10.80;;;3.10;99.90;;;;;;7383566;19;20308;-66
2022/03/22 07:31:48;;;;;;;15.57;11.80;;;3.30;99.90;;;;;;7376114;19;20331;-69
2022/03/22 07:34:15;;;;;;;15.52;10.93;;;3.40;99.90;;;;;;7376131;19;20330;-69
2022/03/22 07:36:41;;;;;;;16.88;11.88;;;3.60;99.90;;;;;;7377107;19;20311;-69
2022/03/22 07:39:07;;;;;;;14.88;10.75;;;3.80;99.90;;;;;;7378155;19;20319;-69
2022/03/22 07:41:34;;;;;;;16.30;10.70;;;4.00;99.90;;;;;;7376856;19;20810;-69
2022/03/22 07:44:01;;;;;;;14.63;10.20;;;4.20;99.90;;;;;;7377423;19;20301;-69
2022/03/22 07:46:27;;;;;;;14.25;11.10;;;4.30;99.90;;;;;;7376284;19;20416;-68
2022/03/22 07:48:53;;;;;;;15.88;11.25;;;4.60;99.90;;;;;;7376095;19;20308;-69
2022/03/22 07:54:03;;;;;;;12.18;8.75;;;4.90;99.90;;;;;;7273153;19;2004370;-68
2022/03/22 07:56:32;;;;;;;14.75;10.55;;;5.10;99.90;;;;;;7377245;19;20309;-68
2022/03/22 07:58:58;;;;;;;11.73;8.68;;;5.20;99.90;;;;;;7377736;19;20341;-68
2022/03/22 08:01:24;;;;;;;10.88;8.50;;;5.40;99.90;;;;;;7377771;19;20432;-68
2022/03/22 08:03:51;;;;;;;11.18;8.45;;;5.60;99.90;;;;;;7373014;19;20810;-69
2022/03/22 08:06:17;;;;;;;11.55;9.00;;;5.70;99.90;;;;;;7377908;19;20316;-68
2022/03/22 08:08:44;;;;;;;12.87;9.07;;;5.80;99.90;;;;;;7372874;19;20647;-68
2022/03/22 08:11:10;;;;;;;13.75;9.60;;;6.00;99.90;;;;;;7376594;19;20323;-68
2022/03/22 08:13:36;;;;;;;15.90;10.50;;;6.20;99.90;;;;;;7376113;19;20408;-68
2022/03/22 08:16:03;;;;;;;12.25;8.80;;;6.40;99.90;;;;;;7374895;19;20355;-69
2022/03/22 08:18:29;;;;;;;12.43;9.77;;;6.50;99.90;;;;;;7372673;19;20331;-68
2022/03/22 08:20:55;;;;;;;12.83;8.77;;;6.60;99.90;;;;;;7378248;19;20972;-67
2022/03/22 08:23:21;;;;;;;13.00;9.75;;;6.70;99.90;;;;;;7370830;19;20303;-67
2022/03/22 08:25:49;;;;;;;12.87;8.17;;;6.80;99.90;;;;;;7372508;19;20320;-66
2022/03/22 08:28:15;;;;;;;11.20;8.32;;;6.90;99.90;;;;;;7372862;19;20700;-67
2022/03/22 08:30:42;;;;;;;12.45;9.63;;;7.10;99.90;;;;;;7377066;19;20369;-67
2022/03/22 08:33:09;;;;;;;10.37;8.13;;;7.20;99.90;;;;;;7377020;19;20312;-67
2022/03/22 08:35:35;;;;;;;16.10;10.32;;;7.30;99.90;;;;;;7377668;19;20312;-68
2022/03/22 08:38:02;;;;;;;11.30;8.88;;;7.50;99.90;;;;;;7375997;19;20714;-67
2022/03/22 08:40:28;;;;;;;11.45;7.03;;;7.70;99.30;;;;;;7377781;19;20351;-67
2022/03/22 08:42:55;;;;;;;9.63;7.88;;;7.80;98.40;;;;;;7370981;19;20313;-67
2022/03/22 08:45:22;;;;;;;10.70;8.38;;;8.00;96.70;;;;;;7375287;19;20331;-69
2022/03/22 08:47:49;;;;;;;11.60;8.50;;;8.20;96.70;;;;;;7373329;19;20342;-69
2022/03/22 08:50:17;;;;;;;11.50;8.90;;;8.40;94.80;;;;;;7377596;19;20320;-69
2022/03/22 08:52:43;;;;;;;11.65;8.80;;;8.60;93.10;;;;;;7371506;19;20296;-69
2022/03/22 08:55:11;;;;;;;11.13;8.30;;;8.70;92.80;;;;;;7372871;19;20315;-70
2022/03/22 08:57:39;;;;;;;10.90;8.27;;;8.70;91.20;;;;;;7373313;19;20737;-70
2022/03/22 09:00:08;;;;;;;10.93;8.30;;;8.90;90.80;;;;;;7374331;19;20331;-70
2022/03/22 09:02:35;;;;;;;14.18;8.48;;;9.00;89.30;;;;;;7370420;19;20344;-70
2022/03/22 09:07:47;;;;;;;10.20;7.82;;;9.20;83.40;;;;;;7370946;19;20341;-70
2022/03/22 09:10:14;;;;;;;15.73;11.43;;;9.40;77.30;;;;;;7376195;19;20296;-70
2022/03/22 09:12:40;;;;;;;22.85;17.48;;;9.40;80.00;;;;;;7373196;19;20848;-70
2022/03/22 09:15:06;;;;;;;11.27;9.52;;;9.60;78.10;;;;;;7378391;19;20324;-70
2022/03/22 09:17:32;;;;;;;10.77;7.78;;;9.80;78.90;;;;;;7376019;19;20304;-70
2022/03/22 09:19:58;;;;;;;13.57;8.73;;;9.90;78.00;;;;;;7371668;19;20320;-70
2022/03/22 09:22:24;;;;;;;8.60;7.07;;;10.10;76.00;;;;;;7371275;19;20502;-71
2022/03/22 09:24:49;;;;;;;8.90;7.25;;;10.20;73.90;;;;;;7375429;19;20305;-70
2022/03/22 09:27:15;;;;;;;9.53;7.47;;;10.30;74.40;;;;;;7378124;19;20344;-71
2022/03/22 09:29:41;;;;;;;11.27;7.70;;;10.60;71.40;;;;;;7381712;19;20331;-70
2022/03/22 09:32:06;;;;;;;10.13;6.57;;;10.80;72.50;;;;;;7378370;19;20341;-70
2022/03/22 09:34:32;;;;;;;11.15;7.40;;;10.90;70.00;;;;;;7378499;19;21107;-71
2022/03/22 09:37:00;;;;;;;8.77;6.43;;;11.10;67.90;;;;;;7379099;19;20320;-70
2022/03/22 09:39:26;;;;;;;9.05;7.03;;;11.40;66.20;;;;;;7380138;19;20371;-71
2022/03/22 09:41:51;;;;;;;6.65;5.88;;;11.50;64.90;;;;;;7377586;19;21102;-70
2022/03/22 09:44:18;;;;;;;6.57;5.87;;;11.70;63.10;;;;;;7379870;19;20313;-70
2022/03/22 09:46:48;;;;;;;6.70;5.80;;;11.90;60.40;;;;;;7374406;19;20705;-71
2022/03/22 09:49:16;;;;;;;6.95;5.88;;;12.10;60.70;;;;;;7353310;19;20304;-71
2022/03/22 09:51:45;;;;;;;6.22;5.05;;;12.30;57.90;;;;;;7378465;19;20332;-71
2022/03/22 09:54:18;;;;;;;5.93;5.30;;;12.60;55.90;;;;;;7377004;19;20317;-71
2022/03/22 09:56:45;;;;;;;7.18;5.68;;;12.70;54.00;;;;;;7344012;19;20437;-71
2022/03/22 09:59:11;;;;;;;5.57;5.07;;;12.90;54.00;;;;;;7376804;19;20861;-71
2022/03/22 10:01:37;;;;;;;6.13;5.43;;;13.00;53.50;;;;;;7380371;19;20363;-71
2022/03/22 10:04:06;;;;;;;6.40;5.37;;;13.10;53.50;;;;;;7375648;19;20699;-70
2022/03/22 10:06:32;;;;;;;6.97;5.43;;;13.20;52.30;;;;;;7375187;19;20348;-71
2022/03/22 10:08:58;;;;;;;6.83;5.03;;;13.40;53.00;;;;;;7377222;19;20338;-71
2022/03/22 10:11:36;;;;;;;6.28;4.95;;;13.50;50.30;;;;;;7376727;19;21168;-71
2022/03/22 10:14:02;;;;;;;8.20;5.05;;;13.60;47.90;;;;;;7375167;19;20321;-71
2022/03/22 10:16:28;;;;;;;5.53;4.78;;;13.80;48.00;;;;;;7374548;19;20325;-71
2022/03/22 10:18:54;;;;;;;6.07;4.90;;;14.00;48.40;;;;;;7379962;19;20305;-71
2022/03/22 10:21:19;;;;;;;5.38;4.50;;;14.20;48.20;;;;;;7362077;19;20329;-71
2022/03/22 10:23:53;;;;;;;6.13;4.57;;;14.30;46.70;;;;;;7376300;19;20354;-71
2022/03/22 10:26:18;;;;;;;9.60;4.40;;;14.60;46.30;;;;;;7375841;19;20395;-71
2022/03/22 10:28:51;;;;;;;5.38;4.28;;;14.90;45.30;;;;;;7373993;19;20420;-71
2022/03/22 10:31:17;;;;;;;5.32;4.22;;;15.10;43.80;;;;;;7375052;19;20331;-72
2022/03/22 10:33:52;;;;;;;4.50;4.10;;;15.40;43.50;;;;;;7376310;19;20420;-72
2022/03/22 10:36:21;;;;;;;4.83;4.33;;;15.60;43.00;;;;;;7376340;19;20431;-71
2022/03/22 10:38:59;;;;;;;5.95;4.10;;;15.80;42.00;;;;;;7376350;19;20391;-71
2022/03/22 10:41:29;;;;;;;4.90;4.13;;;16.00;41.10;;;;;;7377544;19;20357;-72
2022/03/22 10:44:15;;;;;;;4.90;4.18;;;16.20;40.10;;;;;;7367510;19;20405;-71
2022/03/22 10:46:44;;;;;;;4.82;4.10;;;16.50;40.70;;;;;;7375106;19;20327;-71
2022/03/22 10:49:18;;;;;;;4.18;3.55;;;16.90;40.40;;;;;;7374619;19;20325;-71
2022/03/22 10:51:48;;;;;;;4.35;3.80;;;17.10;39.00;;;;;;7372779;19;20671;-71
2022/03/22 10:54:17;;;;;;;4.30;3.58;;;17.50;39.20;;;;;;7375854;19;20297;-72
2022/03/22 10:57:01;;;;;;;4.10;3.70;;;17.60;37.30;;;;;;7374923;19;20305;-71
2022/03/22 10:59:28;;;;;;;5.35;3.50;;;17.60;36.60;;;;;;7272228;19;2004478;-72
2022/03/22 11:01:55;;;;;;;5.37;3.97;;;17.70;36.40;;;;;;7375584;19;20313;-71
2022/03/22 11:04:21;;;;;;;4.07;3.65;;;17.90;36.40;;;;;;7374306;19;20677;-71
2022/03/22 11:06:47;;;;;;;4.17;3.60;;;18.10;35.30;;;;;;7375090;19;20320;-71
2022/03/22 11:09:17;;;;;;;4.45;3.78;;;18.10;34.60;;;;;;7369953;19;20368;-71
2022/03/22 11:11:44;;;;;;;4.82;3.85;;;18.30;33.30;;;;;;7374733;19;20415;-72
2022/03/22 11:14:12;;;;;;;4.75;3.75;;;18.70;36.20;;;;;;7367437;19;20324;-72
2022/03/22 11:16:37;;;;;;;6.78;3.53;;;18.90;32.90;;;;;;7374748;19;20343;-72
2022/03/22 11:19:04;;;;;;;58.28;31.38;;;18.70;31.30;;;;;;7374873;19;20947;-71
2022/03/22 11:21:30;;;;;;;4.13;3.75;;;18.70;32.30;;;;;;7375240;19;20313;-72
2022/03/22 11:24:12;;;;;;;44.63;36.42;;;18.80;30.40;;;;;;7377278;19;20320;-71
2022/03/22 11:26:43;;;;;;;4.05;3.65;;;19.00;31.80;;;;;;7265930;19;2006113;-72
2022/03/22 11:29:17;;;;;;;3.57;3.27;;;19.00;31.60;;;;;;7371964;19;20337;-72
2022/03/22 11:34:09;;;;;;;3.70;3.40;;;18.90;30.30;;;;;;7371037;19;20454;-72
2022/03/22 11:34:35;;;;;;;3.87;3.40;;;19.20;30.90;;;;;;7274408;19;2004600;-72
2022/03/22 11:37:01;;;;;;;3.53;3.22;;;19.40;33.10;;;;;;7363283;19;20370;-72
2022/03/22 11:42:18;;;;;;;3.50;3.20;;;19.60;30.70;;;;;;7370230;19;20344;-72
2022/03/22 11:44:57;;;;;;;3.63;3.30;;;20.00;31.70;;;;;;7372198;19;20806;-73
2022/03/22 11:47:23;;;;;;;3.78;3.38;;;20.30;30.30;;;;;;7373224;19;20873;-73
2022/03/22 11:49:53;;;;;;;4.03;3.25;;;20.50;31.30;;;;;;7376729;19;20324;-73
2022/03/22 11:52:26;;;;;;;6.05;3.45;;;20.40;29.50;;;;;;7368917;19;20410;-73
2022/03/22 11:55:06;;;;;;;5.65;3.58;;;20.60;31.60;;;;;;7373887;19;20355;-72
2022/03/22 11:57:46;;;;;;;4.28;3.55;;;20.70;30.10;;;;;;7371108;19;20355;-73
2022/03/22 12:00:14;;;;;;;5.72;3.47;;;20.60;31.10;;;;;;7377051;19;20976;-73
2022/03/22 12:02:43;;;;;;;3.83;3.17;;;21.10;29.80;;;;;;7370162;19;20337;-72
2022/03/22 12:05:09;;;;;;;7.22;3.63;;;21.00;28.70;;;;;;7375769;19;20316;-73
2022/03/22 12:07:36;;;;;;;5.22;3.60;;;21.10;28.80;;;;;;7355633;19;20946;-72
2022/03/22 12:10:13;;;;;;;9.57;3.60;;;21.10;28.80;;;;;;7372486;19;25563;-72
2022/03/22 12:12:49;;;;;;;4.03;3.45;;;21.30;29.70;;;;;;7368550;19;20427;-73
2022/03/22 12:15:21;;;;;;;3.92;3.55;;;21.70;30.30;;;;;;7362670;19;20354;-72
2022/03/22 12:17:47;;;;;;;7.18;3.80;;;21.20;29.20;;;;;;7370693;19;20340;-73
2022/03/22 12:20:15;;;;;;;4.00;3.60;;;21.10;29.10;;;;;;7376029;19;20674;-73
2022/03/22 12:22:49;;;;;;;4.20;3.53;;;21.30;28.40;;;;;;7362698;19;20659;-73
2022/03/22 12:25:18;;;;;;;3.80;3.28;;;21.60;28.50;;;;;;7367026;19;20341;-73
2022/03/22 12:27:57;;;;;;;3.83;3.53;;;21.80;30.00;;;;;;7369604;19;20349;-73
2022/03/22 12:30:26;;;;;;;4.75;3.47;;;22.30;29.50;;;;;;7372731;19;20326;-73
2022/03/22 12:32:53;;;;;;;4.13;3.72;;;22.80;28.50;;;;;;7374662;19;20324;-73
2022/03/22 12:35:19;;;;;;;3.80;3.40;;;23.10;27.70;;;;;;7373857;19;21172;-73
2022/03/22 12:37:45;;;;;;;5.25;3.72;;;23.30;28.60;;;;;;7344882;19;20344;-72
2022/03/22 12:40:16;;;;;;;4.10;3.65;;;22.90;27.30;;;;;;7350384;19;20312;-73
2022/03/22 12:42:42;;;;;;;4.05;3.50;;;23.30;27.80;;;;;;7370643;19;20864;-72
2022/03/22 12:45:10;;;;;;;3.60;3.30;;;23.00;27.70;;;;;;7374341;19;21044;-73
2022/03/22 12:47:37;;;;;;;3.90;3.50;;;23.40;28.90;;;;;;7369282;19;20447;-73
2022/03/22 12:50:05;;;;;;;3.63;3.33;;;23.80;27.90;;;;;;7374637;19;20317;-72
2022/03/22 12:52:31;;;;;;;4.75;3.58;;;23.60;27.70;;;;;;7366954;19;21299;-73
2022/03/22 12:54:57;;;;;;;3.58;3.28;;;23.70;27.90;;;;;;7369899;19;20350;-74
2022/03/22 12:57:26;;;;;;;4.28;3.58;;;23.30;27.20;;;;;;7368988;19;21056;-73
2022/03/22 12:59:52;;;;;;;4.47;3.38;;;23.30;27.30;;;;;;7371898;19;20408;-72
2022/03/22 13:02:18;;;;;;;3.97;3.50;;;23.60;28.00;;;;;;7373018;19;20324;-73
2022/03/22 13:04:48;;;;;;;3.67;3.38;;;23.50;25.30;;;;;;7377437;19;20334;-73
2022/03/22 13:07:24;;;;;;;3.42;3.13;;;23.10;25.50;;;;;;7377083;19;20326;-73
2022/03/22 13:12:37;;;;;;;2.80;2.55;;;23.20;27.00;;;;;;7377260;19;20332;-72
2022/03/22 13:15:11;;;;;;;4.95;2.90;;;23.10;26.20;;;;;;7380262;19;20416;-75
2022/03/22 13:17:45;;;;;;;2.87;2.67;;;23.60;26.00;;;;;;7380705;19;20336;-73